sensor_id;sensor_type;location;lat;lon;timestamp;P1;durP1;ratioP1;P2;durP2;ratioP2
35961;SDS011;22044;48.298;10.008;2023-02-28T00:00:27;6.57;;;4.80;;
35961;SDS011;22044;48.298;10.008;2023-02-28T00:03:13;6.53;;;4.30;;
35961;SDS011;22044;48.298;10.008;2023-02-28T00:05:58;6.27;;;4.33;;
35961;SDS011;22044;48.298;10.008;2023-02-28T00:08:44;5.70;;;4.20;;
35961;SDS011;22044;48.298;10.008;2023-02-28T00:11:31;7.10;;;4.57;;
35961;SDS011;22044;48.298;10.008;2023-02-28T00:14:17;5.73;;;4.10;;
35961;SDS011;22044;48.298;10.008;2023-02-28T00:17:02;6.70;;;4.60;;
35961;SDS011;22044;48.298;10.008;2023-02-28T00:19:48;5.83;;;4.23;;
35961;SDS011;22044;48.298;10.008;2023-02-28T00:22:34;5.33;;;4.40;;
35961;SDS011;22044;48.298;10.008;2023-02-28T00:25:20;5.70;;;4.13;;
35961;SDS011;22044;48.298;10.008;2023-02-28T00:28:08;5.83;;;4.70;;
35961;SDS011;22044;48.298;10.008;2023-02-28T00:30:54;6.07;;;4.50;;
35961;SDS011;22044;48.298;10.008;2023-02-28T00:33:41;7.57;;;4.40;;
35961;SDS011;22044;48.298;10.008;2023-02-28T00:36:26;6.33;;;3.97;;
35961;SDS011;22044;48.298;10.008;2023-02-28T00:39:12;5.20;;;4.40;;
35961;SDS011;22044;48.298;10.008;2023-02-28T00:41:58;6.23;;;3.97;;
35961;SDS011;22044;48.298;10.008;2023-02-28T00:44:45;7.07;;;4.30;;
35961;SDS011;22044;48.298;10.008;2023-02-28T00:47:30;5.03;;;3.63;;
35961;SDS011;22044;48.298;10.008;2023-02-28T00:50:16;5.77;;;4.50;;
35961;SDS011;22044;48.298;10.008;2023-02-28T00:53:02;5.40;;;3.97;;
35961;SDS011;22044;48.298;10.008;2023-02-28T00:55:48;6.27;;;4.17;;
35961;SDS011;22044;48.298;10.008;2023-02-28T00:58:34;5.37;;;4.20;;
35961;SDS011;22044;48.298;10.008;2023-02-28T01:01:21;5.40;;;3.83;;
35961;SDS011;22044;48.298;10.008;2023-02-28T01:04:06;6.03;;;3.67;;
35961;SDS011;22044;48.298;10.008;2023-02-28T01:06:53;5.67;;;4.07;;
35961;SDS011;22044;48.298;10.008;2023-02-28T01:09:38;5.57;;;4.53;;
35961;SDS011;22044;48.298;10.008;2023-02-28T01:12:24;6.57;;;4.10;;
35961;SDS011;22044;48.298;10.008;2023-02-28T01:15:10;8.63;;;3.87;;
35961;SDS011;22044;48.298;10.008;2023-02-28T01:17:57;6.20;;;4.00;;
35961;SDS011;22044;48.298;10.008;2023-02-28T01:20:43;5.90;;;3.70;;
35961;SDS011;22044;48.298;10.008;2023-02-28T01:23:29;5.37;;;3.70;;
35961;SDS011;22044;48.298;10.008;2023-02-28T01:26:16;5.07;;;3.90;;
35961;SDS011;22044;48.298;10.008;2023-02-28T01:29:03;5.47;;;3.80;;
35961;SDS011;22044;48.298;10.008;2023-02-28T01:31:49;9.83;;;4.63;;
35961;SDS011;22044;48.298;10.008;2023-02-28T01:34:36;4.83;;;3.80;;
35961;SDS011;22044;48.298;10.008;2023-02-28T01:37:22;6.43;;;3.87;;
35961;SDS011;22044;48.298;10.008;2023-02-28T01:40:08;4.53;;;3.87;;
35961;SDS011;22044;48.298;10.008;2023-02-28T01:42:54;4.50;;;3.43;;
35961;SDS011;22044;48.298;10.008;2023-02-28T01:45:40;5.90;;;4.43;;
35961;SDS011;22044;48.298;10.008;2023-02-28T01:48:26;7.73;;;3.87;;
35961;SDS011;22044;48.298;10.008;2023-02-28T01:51:17;7.30;;;4.33;;
35961;SDS011;22044;48.298;10.008;2023-02-28T01:54:07;4.40;;;3.90;;
35961;SDS011;22044;48.298;10.008;2023-02-28T01:56:59;7.40;;;4.20;;
35961;SDS011;22044;48.298;10.008;2023-02-28T01:59:50;5.90;;;4.50;;
35961;SDS011;22044;48.298;10.008;2023-02-28T02:02:40;7.13;;;4.50;;
35961;SDS011;22044;48.298;10.008;2023-02-28T02:05:28;6.63;;;4.00;;
35961;SDS011;22044;48.298;10.008;2023-02-28T02:08:18;4.83;;;4.07;;
35961;SDS011;22044;48.298;10.008;2023-02-28T02:11:07;4.70;;;3.87;;
35961;SDS011;22044;48.298;10.008;2023-02-28T02:13:59;4.97;;;3.93;;
35961;SDS011;22044;48.298;10.008;2023-02-28T02:17:02;5.20;;;4.53;;
35961;SDS011;22044;48.298;10.008;2023-02-28T02:23:28;6.87;;;3.77;;
35961;SDS011;22044;48.298;10.008;2023-02-28T02:26:45;5.97;;;4.60;;
35961;SDS011;22044;48.298;10.008;2023-02-28T02:29:52;5.57;;;4.40;;
35961;SDS011;22044;48.298;10.008;2023-02-28T02:33:06;7.93;;;4.50;;
35961;SDS011;22044;48.298;10.008;2023-02-28T02:36:04;8.97;;;4.37;;
35961;SDS011;22044;48.298;10.008;2023-02-28T02:38:58;5.67;;;4.07;;
35961;SDS011;22044;48.298;10.008;2023-02-28T02:41:50;6.30;;;4.50;;
35961;SDS011;22044;48.298;10.008;2023-02-28T02:44:39;7.80;;;4.40;;
35961;SDS011;22044;48.298;10.008;2023-02-28T02:47:30;6.20;;;4.83;;
35961;SDS011;22044;48.298;10.008;2023-02-28T02:50:17;9.88;;;5.07;;
35961;SDS011;22044;48.298;10.008;2023-02-28T02:53:07;8.87;;;4.87;;
35961;SDS011;22044;48.298;10.008;2023-02-28T02:55:56;9.20;;;5.13;;
35961;SDS011;22044;48.298;10.008;2023-02-28T02:58:44;5.50;;;4.47;;
35961;SDS011;22044;48.298;10.008;2023-02-28T03:01:34;7.63;;;4.90;;
35961;SDS011;22044;48.298;10.008;2023-02-28T03:04:21;5.97;;;4.90;;
35961;SDS011;22044;48.298;10.008;2023-02-28T03:07:08;5.30;;;4.33;;
35961;SDS011;22044;48.298;10.008;2023-02-28T03:09:56;8.27;;;4.50;;
35961;SDS011;22044;48.298;10.008;2023-02-28T03:12:45;6.77;;;5.00;;
35961;SDS011;22044;48.298;10.008;2023-02-28T03:15:43;7.23;;;4.90;;
35961;SDS011;22044;48.298;10.008;2023-02-28T03:18:40;8.63;;;5.40;;
35961;SDS011;22044;48.298;10.008;2023-02-28T03:21:34;6.73;;;4.77;;
35961;SDS011;22044;48.298;10.008;2023-02-28T03:24:24;10.87;;;4.97;;
35961;SDS011;22044;48.298;10.008;2023-02-28T03:27:21;6.43;;;4.60;;
35961;SDS011;22044;48.298;10.008;2023-02-28T03:30:14;6.83;;;5.73;;
35961;SDS011;22044;48.298;10.008;2023-02-28T03:33:08;9.03;;;5.17;;
35961;SDS011;22044;48.298;10.008;2023-02-28T03:35:58;6.40;;;4.70;;
35961;SDS011;22044;48.298;10.008;2023-02-28T03:38:48;7.40;;;4.53;;
35961;SDS011;22044;48.298;10.008;2023-02-28T03:41:37;5.80;;;4.80;;
35961;SDS011;22044;48.298;10.008;2023-02-28T03:44:29;6.43;;;5.27;;
35961;SDS011;22044;48.298;10.008;2023-02-28T03:47:20;6.40;;;5.57;;
35961;SDS011;22044;48.298;10.008;2023-02-28T03:50:10;7.47;;;5.20;;
35961;SDS011;22044;48.298;10.008;2023-02-28T03:53:01;6.30;;;5.13;;
35961;SDS011;22044;48.298;10.008;2023-02-28T03:55:51;6.43;;;5.00;;
35961;SDS011;22044;48.298;10.008;2023-02-28T03:58:41;6.60;;;5.27;;
35961;SDS011;22044;48.298;10.008;2023-02-28T04:01:31;6.07;;;5.00;;
35961;SDS011;22044;48.298;10.008;2023-02-28T04:04:21;7.30;;;5.23;;
35961;SDS011;22044;48.298;10.008;2023-02-28T04:07:07;7.63;;;5.50;;
35961;SDS011;22044;48.298;10.008;2023-02-28T04:09:53;11.27;;;5.60;;
35961;SDS011;22044;48.298;10.008;2023-02-28T04:12:39;6.93;;;4.73;;
35961;SDS011;22044;48.298;10.008;2023-02-28T04:15:25;9.30;;;5.60;;
35961;SDS011;22044;48.298;10.008;2023-02-28T04:18:12;7.83;;;5.03;;
35961;SDS011;22044;48.298;10.008;2023-02-28T04:20:59;7.93;;;5.97;;
35961;SDS011;22044;48.298;10.008;2023-02-28T04:23:45;7.80;;;5.93;;
35961;SDS011;22044;48.298;10.008;2023-02-28T04:26:31;7.23;;;5.40;;
35961;SDS011;22044;48.298;10.008;2023-02-28T04:29:22;9.07;;;5.20;;
35961;SDS011;22044;48.298;10.008;2023-02-28T04:32:10;8.13;;;5.50;;
35961;SDS011;22044;48.298;10.008;2023-02-28T04:34:57;10.50;;;6.47;;
35961;SDS011;22044;48.298;10.008;2023-02-28T04:37:43;8.43;;;6.27;;
35961;SDS011;22044;48.298;10.008;2023-02-28T04:40:28;8.17;;;5.80;;
35961;SDS011;22044;48.298;10.008;2023-02-28T04:43:14;7.27;;;6.03;;
35961;SDS011;22044;48.298;10.008;2023-02-28T04:46:02;8.83;;;6.13;;
35961;SDS011;22044;48.298;10.008;2023-02-28T04:48:48;9.40;;;6.53;;
35961;SDS011;22044;48.298;10.008;2023-02-28T04:51:35;8.73;;;6.17;;
35961;SDS011;22044;48.298;10.008;2023-02-28T04:54:21;9.00;;;6.30;;
35961;SDS011;22044;48.298;10.008;2023-02-28T04:57:07;8.93;;;6.10;;
35961;SDS011;22044;48.298;10.008;2023-02-28T04:59:52;8.83;;;6.47;;
35961;SDS011;22044;48.298;10.008;2023-02-28T05:02:38;10.17;;;6.10;;
35961;SDS011;22044;48.298;10.008;2023-02-28T05:05:23;9.03;;;6.57;;
35961;SDS011;22044;48.298;10.008;2023-02-28T05:08:10;11.77;;;7.70;;
35961;SDS011;22044;48.298;10.008;2023-02-28T05:10:56;13.97;;;7.43;;
35961;SDS011;22044;48.298;10.008;2023-02-28T05:13:42;10.83;;;7.33;;
35961;SDS011;22044;48.298;10.008;2023-02-28T05:16:28;11.53;;;7.20;;
35961;SDS011;22044;48.298;10.008;2023-02-28T05:19:15;10.40;;;7.33;;
35961;SDS011;22044;48.298;10.008;2023-02-28T05:22:00;9.27;;;6.57;;
35961;SDS011;22044;48.298;10.008;2023-02-28T05:24:47;11.07;;;7.50;;
35961;SDS011;22044;48.298;10.008;2023-02-28T05:27:33;11.10;;;7.13;;
35961;SDS011;22044;48.298;10.008;2023-02-28T05:30:18;10.90;;;7.00;;
35961;SDS011;22044;48.298;10.008;2023-02-28T05:33:04;10.77;;;7.57;;
35961;SDS011;22044;48.298;10.008;2023-02-28T05:35:49;11.30;;;8.07;;
35961;SDS011;22044;48.298;10.008;2023-02-28T05:38:35;10.90;;;7.50;;
35961;SDS011;22044;48.298;10.008;2023-02-28T05:41:22;12.90;;;7.43;;
35961;SDS011;22044;48.298;10.008;2023-02-28T05:44:07;15.17;;;8.10;;
35961;SDS011;22044;48.298;10.008;2023-02-28T05:46:53;10.00;;;7.60;;
35961;SDS011;22044;48.298;10.008;2023-02-28T05:49:39;14.10;;;8.30;;
35961;SDS011;22044;48.298;10.008;2023-02-28T05:52:25;12.47;;;8.27;;
35961;SDS011;22044;48.298;10.008;2023-02-28T05:55:10;11.60;;;8.10;;
35961;SDS011;22044;48.298;10.008;2023-02-28T05:57:57;11.80;;;8.17;;
35961;SDS011;22044;48.298;10.008;2023-02-28T06:00:42;14.27;;;9.40;;
35961;SDS011;22044;48.298;10.008;2023-02-28T06:03:29;11.07;;;7.83;;
35961;SDS011;22044;48.298;10.008;2023-02-28T06:06:14;15.47;;;8.30;;
35961;SDS011;22044;48.298;10.008;2023-02-28T06:09:00;10.77;;;8.07;;
35961;SDS011;22044;48.298;10.008;2023-02-28T06:11:46;12.23;;;8.53;;
35961;SDS011;22044;48.298;10.008;2023-02-28T06:14:34;12.00;;;8.70;;
35961;SDS011;22044;48.298;10.008;2023-02-28T06:17:19;10.50;;;6.90;;
35961;SDS011;22044;48.298;10.008;2023-02-28T06:20:06;11.13;;;8.23;;
35961;SDS011;22044;48.298;10.008;2023-02-28T06:22:52;13.07;;;8.07;;
35961;SDS011;22044;48.298;10.008;2023-02-28T06:25:39;13.77;;;8.97;;
35961;SDS011;22044;48.298;10.008;2023-02-28T06:28:25;14.07;;;8.60;;
35961;SDS011;22044;48.298;10.008;2023-02-28T06:31:13;11.27;;;7.63;;
35961;SDS011;22044;48.298;10.008;2023-02-28T06:34:01;14.47;;;9.50;;
35961;SDS011;22044;48.298;10.008;2023-02-28T06:36:46;13.07;;;9.20;;
35961;SDS011;22044;48.298;10.008;2023-02-28T06:39:34;15.00;;;9.30;;
35961;SDS011;22044;48.298;10.008;2023-02-28T06:42:21;13.40;;;8.77;;
35961;SDS011;22044;48.298;10.008;2023-02-28T06:45:09;14.17;;;9.50;;
35961;SDS011;22044;48.298;10.008;2023-02-28T06:47:56;15.20;;;9.37;;
35961;SDS011;22044;48.298;10.008;2023-02-28T06:50:43;15.97;;;9.87;;
35961;SDS011;22044;48.298;10.008;2023-02-28T06:53:29;18.17;;;9.63;;
35961;SDS011;22044;48.298;10.008;2023-02-28T06:56:15;13.97;;;9.40;;
35961;SDS011;22044;48.298;10.008;2023-02-28T06:59:03;15.43;;;9.57;;
35961;SDS011;22044;48.298;10.008;2023-02-28T07:01:49;17.20;;;10.03;;
35961;SDS011;22044;48.298;10.008;2023-02-28T07:04:36;20.50;;;9.93;;
35961;SDS011;22044;48.298;10.008;2023-02-28T07:07:24;13.27;;;9.13;;
35961;SDS011;22044;48.298;10.008;2023-02-28T07:10:10;15.27;;;9.53;;
35961;SDS011;22044;48.298;10.008;2023-02-28T07:12:56;15.20;;;9.77;;
35961;SDS011;22044;48.298;10.008;2023-02-28T07:15:42;20.97;;;10.20;;
35961;SDS011;22044;48.298;10.008;2023-02-28T07:18:27;14.37;;;9.83;;
35961;SDS011;22044;48.298;10.008;2023-02-28T07:21:15;15.17;;;9.93;;
35961;SDS011;22044;48.298;10.008;2023-02-28T07:24:01;17.57;;;10.77;;
35961;SDS011;22044;48.298;10.008;2023-02-28T07:26:47;12.87;;;9.20;;
35961;SDS011;22044;48.298;10.008;2023-02-28T07:29:32;12.60;;;9.33;;
35961;SDS011;22044;48.298;10.008;2023-02-28T07:32:18;13.07;;;9.47;;
35961;SDS011;22044;48.298;10.008;2023-02-28T07:35:04;14.67;;;10.43;;
35961;SDS011;22044;48.298;10.008;2023-02-28T07:37:52;15.20;;;10.60;;
35961;SDS011;22044;48.298;10.008;2023-02-28T07:40:37;13.73;;;8.60;;
35961;SDS011;22044;48.298;10.008;2023-02-28T07:43:23;17.33;;;10.00;;
35961;SDS011;22044;48.298;10.008;2023-02-28T07:46:09;22.10;;;9.97;;
35961;SDS011;22044;48.298;10.008;2023-02-28T07:48:58;15.90;;;10.70;;
35961;SDS011;22044;48.298;10.008;2023-02-28T07:51:44;13.87;;;10.33;;
35961;SDS011;22044;48.298;10.008;2023-02-28T07:54:34;17.33;;;11.17;;
35961;SDS011;22044;48.298;10.008;2023-02-28T07:57:19;18.30;;;10.87;;
35961;SDS011;22044;48.298;10.008;2023-02-28T08:00:06;18.17;;;11.23;;
35961;SDS011;22044;48.298;10.008;2023-02-28T08:02:58;14.47;;;9.70;;
35961;SDS011;22044;48.298;10.008;2023-02-28T08:05:43;14.40;;;9.90;;
35961;SDS011;22044;48.298;10.008;2023-02-28T08:08:29;14.30;;;9.90;;
35961;SDS011;22044;48.298;10.008;2023-02-28T08:11:17;20.13;;;11.67;;
35961;SDS011;22044;48.298;10.008;2023-02-28T08:14:03;18.20;;;11.33;;
35961;SDS011;22044;48.298;10.008;2023-02-28T08:16:48;16.10;;;10.97;;
35961;SDS011;22044;48.298;10.008;2023-02-28T08:19:34;16.90;;;10.90;;
35961;SDS011;22044;48.298;10.008;2023-02-28T08:22:19;19.30;;;10.90;;
35961;SDS011;22044;48.298;10.008;2023-02-28T08:25:05;16.87;;;10.60;;
35961;SDS011;22044;48.298;10.008;2023-02-28T08:27:53;14.67;;;10.53;;
35961;SDS011;22044;48.298;10.008;2023-02-28T08:30:38;20.57;;;11.67;;
35961;SDS011;22044;48.298;10.008;2023-02-28T08:33:24;16.93;;;11.93;;
35961;SDS011;22044;48.298;10.008;2023-02-28T08:36:11;17.20;;;11.30;;
35961;SDS011;22044;48.298;10.008;2023-02-28T08:38:57;15.60;;;11.80;;
35961;SDS011;22044;48.298;10.008;2023-02-28T08:41:43;15.87;;;11.47;;
35961;SDS011;22044;48.298;10.008;2023-02-28T08:44:29;17.07;;;10.80;;
35961;SDS011;22044;48.298;10.008;2023-02-28T08:47:15;17.00;;;11.63;;
35961;SDS011;22044;48.298;10.008;2023-02-28T08:50:01;17.97;;;11.53;;
35961;SDS011;22044;48.298;10.008;2023-02-28T08:52:47;25.37;;;13.27;;
35961;SDS011;22044;48.298;10.008;2023-02-28T08:55:32;16.47;;;10.57;;
35961;SDS011;22044;48.298;10.008;2023-02-28T08:58:18;14.50;;;11.20;;
35961;SDS011;22044;48.298;10.008;2023-02-28T09:01:08;18.23;;;9.20;;
35961;SDS011;22044;48.298;10.008;2023-02-28T09:03:55;21.43;;;11.63;;
35961;SDS011;22044;48.298;10.008;2023-02-28T09:06:42;20.60;;;11.53;;
35961;SDS011;22044;48.298;10.008;2023-02-28T09:09:28;20.03;;;11.03;;
35961;SDS011;22044;48.298;10.008;2023-02-28T09:12:13;15.00;;;10.80;;
35961;SDS011;22044;48.298;10.008;2023-02-28T09:14:59;17.73;;;12.30;;
35961;SDS011;22044;48.298;10.008;2023-02-28T09:17:46;18.57;;;12.57;;
35961;SDS011;22044;48.298;10.008;2023-02-28T09:20:32;34.77;;;13.70;;
35961;SDS011;22044;48.298;10.008;2023-02-28T09:23:17;20.33;;;11.87;;
35961;SDS011;22044;48.298;10.008;2023-02-28T09:26:03;16.93;;;11.87;;
35961;SDS011;22044;48.298;10.008;2023-02-28T09:28:50;19.00;;;12.47;;
35961;SDS011;22044;48.298;10.008;2023-02-28T09:31:36;21.47;;;12.07;;
35961;SDS011;22044;48.298;10.008;2023-02-28T09:34:23;17.43;;;11.87;;
35961;SDS011;22044;48.298;10.008;2023-02-28T09:37:09;17.37;;;11.43;;
35961;SDS011;22044;48.298;10.008;2023-02-28T09:39:54;35.70;;;13.40;;
35961;SDS011;22044;48.298;10.008;2023-02-28T09:42:40;19.47;;;11.67;;
35961;SDS011;22044;48.298;10.008;2023-02-28T09:45:28;15.80;;;11.97;;
35961;SDS011;22044;48.298;10.008;2023-02-28T09:48:18;18.37;;;11.43;;
35961;SDS011;22044;48.298;10.008;2023-02-28T09:51:12;33.80;;;14.10;;
35961;SDS011;22044;48.298;10.008;2023-02-28T09:54:13;19.23;;;11.83;;
35961;SDS011;22044;48.298;10.008;2023-02-28T09:57:04;22.27;;;12.77;;
35961;SDS011;22044;48.298;10.008;2023-02-28T10:00:07;16.90;;;12.03;;
35961;SDS011;22044;48.298;10.008;2023-02-28T10:03:03;21.60;;;12.27;;
35961;SDS011;22044;48.298;10.008;2023-02-28T10:05:59;14.27;;;10.77;;
35961;SDS011;22044;48.298;10.008;2023-02-28T10:08:57;16.80;;;11.83;;
35961;SDS011;22044;48.298;10.008;2023-02-28T10:11:47;15.47;;;11.03;;
35961;SDS011;22044;48.298;10.008;2023-02-28T10:14:35;17.23;;;12.43;;
35961;SDS011;22044;48.298;10.008;2023-02-28T10:17:26;17.43;;;12.47;;
35961;SDS011;22044;48.298;10.008;2023-02-28T10:20:17;22.00;;;12.90;;
35961;SDS011;22044;48.298;10.008;2023-02-28T10:23:08;17.57;;;12.20;;
35961;SDS011;22044;48.298;10.008;2023-02-28T10:26:03;16.30;;;11.63;;
35961;SDS011;22044;48.298;10.008;2023-02-28T10:28:54;18.10;;;12.27;;
35961;SDS011;22044;48.298;10.008;2023-02-28T10:31:40;16.10;;;12.03;;
35961;SDS011;22044;48.298;10.008;2023-02-28T10:34:26;16.67;;;12.67;;
35961;SDS011;22044;48.298;10.008;2023-02-28T10:37:11;38.43;;;14.60;;
35961;SDS011;22044;48.298;10.008;2023-02-28T10:39:59;17.93;;;11.87;;
35961;SDS011;22044;48.298;10.008;2023-02-28T10:42:49;15.50;;;11.30;;
35961;SDS011;22044;48.298;10.008;2023-02-28T10:45:51;20.80;;;13.30;;
35961;SDS011;22044;48.298;10.008;2023-02-28T10:48:41;19.10;;;12.50;;
35961;SDS011;22044;48.298;10.008;2023-02-28T10:51:33;16.67;;;12.73;;
35961;SDS011;22044;48.298;10.008;2023-02-28T10:54:22;15.53;;;11.37;;
35961;SDS011;22044;48.298;10.008;2023-02-28T10:57:15;18.43;;;12.80;;
35961;SDS011;22044;48.298;10.008;2023-02-28T11:00:12;19.00;;;12.63;;
35961;SDS011;22044;48.298;10.008;2023-02-28T11:03:00;25.63;;;13.10;;
35961;SDS011;22044;48.298;10.008;2023-02-28T11:05:46;17.07;;;11.70;;
35961;SDS011;22044;48.298;10.008;2023-02-28T11:08:34;16.90;;;12.30;;
35961;SDS011;22044;48.298;10.008;2023-02-28T11:11:28;16.57;;;12.70;;
35961;SDS011;22044;48.298;10.008;2023-02-28T11:14:17;26.97;;;14.07;;
35961;SDS011;22044;48.298;10.008;2023-02-28T11:17:13;18.50;;;12.70;;
35961;SDS011;22044;48.298;10.008;2023-02-28T11:20:04;15.27;;;11.07;;
35961;SDS011;22044;48.298;10.008;2023-02-28T11:22:52;16.00;;;12.03;;
35961;SDS011;22044;48.298;10.008;2023-02-28T11:25:39;17.80;;;12.23;;
35961;SDS011;22044;48.298;10.008;2023-02-28T11:28:31;18.87;;;12.30;;
35961;SDS011;22044;48.298;10.008;2023-02-28T11:31:18;17.53;;;10.43;;
35961;SDS011;22044;48.298;10.008;2023-02-28T11:36:59;17.33;;;12.37;;
35961;SDS011;22044;48.298;10.008;2023-02-28T11:39:48;16.70;;;12.03;;
35961;SDS011;22044;48.298;10.008;2023-02-28T11:42:40;15.57;;;11.43;;
35961;SDS011;22044;48.298;10.008;2023-02-28T11:45:42;15.33;;;10.87;;
35961;SDS011;22044;48.298;10.008;2023-02-28T11:48:32;14.63;;;10.83;;
35961;SDS011;22044;48.298;10.008;2023-02-28T11:51:27;19.17;;;11.77;;
35961;SDS011;22044;48.298;10.008;2023-02-28T11:54:26;17.53;;;12.63;;
35961;SDS011;22044;48.298;10.008;2023-02-28T11:57:24;14.57;;;11.27;;
35961;SDS011;22044;48.298;10.008;2023-02-28T12:00:26;22.03;;;12.83;;
35961;SDS011;22044;48.298;10.008;2023-02-28T12:03:22;16.87;;;11.97;;
35961;SDS011;22044;48.298;10.008;2023-02-28T12:06:15;15.23;;;11.40;;
35961;SDS011;22044;48.298;10.008;2023-02-28T12:09:11;14.30;;;11.67;;
35961;SDS011;22044;48.298;10.008;2023-02-28T12:12:26;16.23;;;11.27;;
35961;SDS011;22044;48.298;10.008;2023-02-28T12:15:25;15.87;;;12.07;;
35961;SDS011;22044;48.298;10.008;2023-02-28T12:18:26;19.73;;;12.33;;
35961;SDS011;22044;48.298;10.008;2023-02-28T12:21:36;14.20;;;11.40;;
35961;SDS011;22044;48.298;10.008;2023-02-28T12:27:40;19.63;;;12.27;;
35961;SDS011;22044;48.298;10.008;2023-02-28T12:30:30;17.93;;;11.83;;
35961;SDS011;22044;48.298;10.008;2023-02-28T12:33:19;28.07;;;11.23;;
35961;SDS011;22044;48.298;10.008;2023-02-28T12:36:09;13.13;;;10.70;;
35961;SDS011;22044;48.298;10.008;2023-02-28T12:38:59;13.73;;;10.70;;
35961;SDS011;22044;48.298;10.008;2023-02-28T12:41:50;17.77;;;11.67;;
35961;SDS011;22044;48.298;10.008;2023-02-28T12:44:39;14.33;;;9.83;;
35961;SDS011;22044;48.298;10.008;2023-02-28T12:47:29;16.43;;;12.00;;
35961;SDS011;22044;48.298;10.008;2023-02-28T12:50:15;15.10;;;10.70;;
35961;SDS011;22044;48.298;10.008;2023-02-28T12:53:02;17.67;;;11.00;;
35961;SDS011;22044;48.298;10.008;2023-02-28T12:55:53;13.37;;;10.30;;
35961;SDS011;22044;48.298;10.008;2023-02-28T12:58:49;15.90;;;11.10;;
35961;SDS011;22044;48.298;10.008;2023-02-28T13:01:42;19.37;;;11.03;;
35961;SDS011;22044;48.298;10.008;2023-02-28T13:04:47;15.27;;;11.40;;
35961;SDS011;22044;48.298;10.008;2023-02-28T13:11:08;18.90;;;11.47;;
35961;SDS011;22044;48.298;10.008;2023-02-28T13:14:18;23.20;;;12.13;;
35961;SDS011;22044;48.298;10.008;2023-02-28T13:17:12;15.17;;;10.37;;
35961;SDS011;22044;48.298;10.008;2023-02-28T13:20:04;14.43;;;11.00;;
35961;SDS011;22044;48.298;10.008;2023-02-28T13:22:59;21.17;;;11.77;;
35961;SDS011;22044;48.298;10.008;2023-02-28T13:25:52;13.60;;;11.30;;
35961;SDS011;22044;48.298;10.008;2023-02-28T13:38:33;14.03;;;10.27;;
35961;SDS011;22044;48.298;10.008;2023-02-28T13:44:29;15.80;;;10.80;;
35961;SDS011;22044;48.298;10.008;2023-02-28T13:47:35;13.97;;;10.57;;
35961;SDS011;22044;48.298;10.008;2023-02-28T13:50:29;15.13;;;11.40;;
35961;SDS011;22044;48.298;10.008;2023-02-28T13:53:30;12.77;;;10.27;;
35961;SDS011;22044;48.298;10.008;2023-02-28T13:56:34;13.77;;;10.57;;
35961;SDS011;22044;48.298;10.008;2023-02-28T13:59:31;12.67;;;9.77;;
35961;SDS011;22044;48.298;10.008;2023-02-28T14:02:35;13.50;;;10.60;;
35961;SDS011;22044;48.298;10.008;2023-02-28T14:05:34;13.80;;;10.00;;
35961;SDS011;22044;48.298;10.008;2023-02-28T14:08:20;13.00;;;10.53;;
35961;SDS011;22044;48.298;10.008;2023-02-28T14:11:16;15.03;;;11.03;;
35961;SDS011;22044;48.298;10.008;2023-02-28T14:17:31;15.13;;;10.23;;
35961;SDS011;22044;48.298;10.008;2023-02-28T14:20:18;26.23;;;10.67;;
35961;SDS011;22044;48.298;10.008;2023-02-28T14:23:08;13.23;;;10.40;;
35961;SDS011;22044;48.298;10.008;2023-02-28T14:26:01;16.60;;;10.90;;
35961;SDS011;22044;48.298;10.008;2023-02-28T14:28:59;14.47;;;10.83;;
35961;SDS011;22044;48.298;10.008;2023-02-28T14:31:57;17.33;;;10.60;;
35961;SDS011;22044;48.298;10.008;2023-02-28T14:34:48;13.57;;;10.17;;
35961;SDS011;22044;48.298;10.008;2023-02-28T14:37:38;18.67;;;11.17;;
35961;SDS011;22044;48.298;10.008;2023-02-28T14:40:27;13.53;;;10.30;;
35961;SDS011;22044;48.298;10.008;2023-02-28T14:43:19;12.30;;;9.70;;
35961;SDS011;22044;48.298;10.008;2023-02-28T14:46:07;15.80;;;10.73;;
35961;SDS011;22044;48.298;10.008;2023-02-28T14:48:58;16.13;;;10.10;;
35961;SDS011;22044;48.298;10.008;2023-02-28T14:51:44;13.30;;;11.03;;
35961;SDS011;22044;48.298;10.008;2023-02-28T14:54:31;14.23;;;10.43;;
35961;SDS011;22044;48.298;10.008;2023-02-28T14:57:21;13.47;;;10.60;;
35961;SDS011;22044;48.298;10.008;2023-02-28T15:00:11;14.87;;;11.37;;
35961;SDS011;22044;48.298;10.008;2023-02-28T15:03:13;13.60;;;11.03;;
35961;SDS011;22044;48.298;10.008;2023-02-28T15:06:04;13.73;;;10.40;;
35961;SDS011;22044;48.298;10.008;2023-02-28T15:09:07;15.50;;;11.13;;
35961;SDS011;22044;48.298;10.008;2023-02-28T15:11:58;13.17;;;11.03;;
35961;SDS011;22044;48.298;10.008;2023-02-28T15:14:44;15.37;;;11.27;;
35961;SDS011;22044;48.298;10.008;2023-02-28T15:17:29;14.37;;;10.73;;
35961;SDS011;22044;48.298;10.008;2023-02-28T15:20:17;13.80;;;10.63;;
35961;SDS011;22044;48.298;10.008;2023-02-28T15:23:04;13.40;;;10.90;;
35961;SDS011;22044;48.298;10.008;2023-02-28T15:25:49;17.87;;;11.07;;
35961;SDS011;22044;48.298;10.008;2023-02-28T15:28:37;15.13;;;10.83;;
35961;SDS011;22044;48.298;10.008;2023-02-28T15:31:24;13.50;;;10.30;;
35961;SDS011;22044;48.298;10.008;2023-02-28T15:34:17;15.23;;;11.20;;
35961;SDS011;22044;48.298;10.008;2023-02-28T15:40:25;16.27;;;10.93;;
35961;SDS011;22044;48.298;10.008;2023-02-28T15:43:13;16.13;;;10.87;;
35961;SDS011;22044;48.298;10.008;2023-02-28T15:46:00;12.50;;;9.63;;
35961;SDS011;22044;48.298;10.008;2023-02-28T15:48:50;15.73;;;10.07;;
35961;SDS011;22044;48.298;10.008;2023-02-28T15:51:37;13.17;;;10.03;;
35961;SDS011;22044;48.298;10.008;2023-02-28T15:54:27;14.60;;;10.87;;
35961;SDS011;22044;48.298;10.008;2023-02-28T15:57:15;14.43;;;9.90;;
35961;SDS011;22044;48.298;10.008;2023-02-28T16:00:04;13.23;;;10.37;;
35961;SDS011;22044;48.298;10.008;2023-02-28T16:02:55;15.00;;;10.90;;
35961;SDS011;22044;48.298;10.008;2023-02-28T16:05:41;15.00;;;10.60;;
35961;SDS011;22044;48.298;10.008;2023-02-28T16:08:26;13.77;;;10.20;;
35961;SDS011;22044;48.298;10.008;2023-02-28T16:11:14;21.10;;;10.97;;
35961;SDS011;22044;48.298;10.008;2023-02-28T16:13:59;12.77;;;10.17;;
35961;SDS011;22044;48.298;10.008;2023-02-28T16:16:46;12.47;;;10.30;;
35961;SDS011;22044;48.298;10.008;2023-02-28T16:19:33;13.03;;;10.40;;
35961;SDS011;22044;48.298;10.008;2023-02-28T16:22:18;12.47;;;9.37;;
35961;SDS011;22044;48.298;10.008;2023-02-28T16:25:04;13.17;;;9.93;;
35961;SDS011;22044;48.298;10.008;2023-02-28T16:27:53;13.40;;;10.37;;
35961;SDS011;22044;48.298;10.008;2023-02-28T16:30:41;14.90;;;10.37;;
35961;SDS011;22044;48.298;10.008;2023-02-28T16:33:26;15.63;;;11.03;;
35961;SDS011;22044;48.298;10.008;2023-02-28T16:36:15;16.37;;;10.97;;
35961;SDS011;22044;48.298;10.008;2023-02-28T16:39:03;16.53;;;10.00;;
35961;SDS011;22044;48.298;10.008;2023-02-28T16:41:49;13.73;;;10.70;;
35961;SDS011;22044;48.298;10.008;2023-02-28T16:44:37;16.27;;;11.33;;
35961;SDS011;22044;48.298;10.008;2023-02-28T16:47:22;13.87;;;10.37;;
35961;SDS011;22044;48.298;10.008;2023-02-28T16:50:12;16.33;;;11.03;;
35961;SDS011;22044;48.298;10.008;2023-02-28T16:52:59;15.10;;;10.67;;
35961;SDS011;22044;48.298;10.008;2023-02-28T16:55:45;15.50;;;11.03;;
35961;SDS011;22044;48.298;10.008;2023-02-28T16:58:31;15.70;;;10.47;;